createdAt,value
2022-08-26T00:00:19.772Z,96376.97
2022-08-26T00:02:47.683Z,96383.38
2022-08-26T00:05:15.607Z,96382.44
2022-08-26T00:07:44.034Z,96374.97
2022-08-26T00:10:12.729Z,96369.78
2022-08-26T00:12:41.593Z,96378.19
2022-08-26T00:15:14.278Z,96371.53
2022-08-26T00:17:42.987Z,96368.66
2022-08-26T00:20:12.800Z,96369.88
2022-08-26T00:22:42.402Z,96366.53
2022-08-26T00:25:12.131Z,96361.53
2022-08-26T00:27:40.073Z,96360.03
2022-08-26T00:30:13.284Z,96366.44
2022-08-26T00:32:41.465Z,96367.09
2022-08-26T00:35:13.177Z,96361.63
2022-08-26T00:37:42.949Z,96363.44
2022-08-26T00:40:14.238Z,96356.16
2022-08-26T00:42:46.148Z,96355.34
2022-08-26T00:45:16.328Z,96356.53
2022-08-26T00:47:48.417Z,96349.88
2022-08-26T00:50:19.761Z,96359.28
2022-08-26T00:52:48.977Z,96345.72
2022-08-26T00:55:23.208Z,96353.91
2022-08-26T00:57:51.907Z,96359.94
2022-08-26T01:00:27.057Z,96363.66
2022-08-26T01:02:56.509Z,96359.50
2022-08-26T01:05:25.940Z,96374.38
2022-08-26T01:07:53.859Z,96368.56
2022-08-26T01:10:25.593Z,96363.00
2022-08-26T01:12:57.543Z,96368.06
2022-08-26T01:15:35.483Z,96366.75
2022-08-26T01:18:05.403Z,96362.78
2022-08-26T01:20:42.367Z,96372.53
2022-08-26T01:23:13.184Z,96364.88
2022-08-26T01:25:45.925Z,96365.25
2022-08-26T01:28:18.028Z,96366.88
2022-08-26T01:30:47.816Z,96354.16
2022-08-26T01:33:20.323Z,96358.19
2022-08-26T01:35:48.594Z,96365.25
2022-08-26T01:38:18.721Z,96358.41
2022-08-26T01:40:47.043Z,96360.41
2022-08-26T01:43:18.357Z,96362.59
2022-08-26T01:45:47.829Z,96369.81
2022-08-26T01:48:20.206Z,96363.63
2022-08-26T01:50:59.983Z,96368.16
2022-08-26T01:53:29.337Z,96370.34
2022-08-26T01:55:59.883Z,96365.34
2022-08-26T01:58:31.894Z,96367.75
2022-08-26T02:01:00.069Z,96377.13
2022-08-26T02:03:31.169Z,96380.81
2022-08-26T02:06:03.912Z,96381.81
2022-08-26T02:08:39.048Z,96375.81
2022-08-26T02:11:07.214Z,96379.66
2022-08-26T02:13:39.085Z,96375.16
2022-08-26T02:16:09.388Z,96378.19
2022-08-26T02:18:41.255Z,96377.53
2022-08-26T02:21:12.608Z,96376.88
2022-08-26T02:23:42.634Z,96372.91
2022-08-26T02:26:14.366Z,96375.56
2022-08-26T02:28:51.286Z,96373.44
2022-08-26T02:31:19.894Z,96372.09
2022-08-26T02:33:48.002Z,96369.22
2022-08-26T02:36:21.988Z,96369.91
2022-08-26T02:38:52.118Z,96364.53
2022-08-26T02:41:20.051Z,96360.56
2022-08-26T02:43:51.042Z,96363.28
2022-08-26T02:46:27.931Z,96358.06
2022-08-26T02:48:57.932Z,96355.91
2022-08-26T02:51:26.126Z,96358.59
2022-08-26T02:53:55.448Z,96357.09
2022-08-26T02:56:23.544Z,96363.97
2022-08-26T02:58:51.443Z,96356.13
2022-08-26T03:01:23.791Z,96358.13
2022-08-26T03:03:51.778Z,96356.13
2022-08-26T03:06:19.668Z,96353.97
2022-08-26T03:08:47.746Z,96357.97
2022-08-26T03:11:17.068Z,96343.94
2022-08-26T03:13:45.001Z,96352.63
2022-08-26T03:16:13.619Z,96351.97
2022-08-26T03:18:42.095Z,96350.00
2022-08-26T03:21:12.535Z,96354.03
2022-08-26T03:23:41.547Z,96345.34
2022-08-26T03:26:13.259Z,96346.88
2022-08-26T03:29:02.941Z,96352.41
2022-08-26T03:31:30.252Z,96351.75
2022-08-26T03:33:59.799Z,96352.56
2022-08-26T03:36:27.922Z,96357.09
2022-08-26T03:38:57.260Z,96352.25
2022-08-26T03:41:25.387Z,96354.25
2022-08-26T03:43:58.423Z,96347.72
2022-08-26T03:46:29.811Z,96354.47
2022-08-26T03:48:57.807Z,96351.78
2022-08-26T03:51:27.243Z,96342.75
2022-08-26T03:53:55.961Z,96342.09
2022-08-26T03:56:24.991Z,96348.75
2022-08-26T03:58:55.605Z,96347.78
2022-08-26T04:01:24.072Z,96341.91
2022-08-26T04:04:01.571Z,96341.78
2022-08-26T04:06:33.559Z,96347.78
2022-08-26T04:09:05.383Z,96352.63
2022-08-26T04:11:35.601Z,96343.13
2022-08-26T04:14:10.976Z,96348.31
2022-08-26T04:16:38.984Z,96341.81
2022-08-26T04:19:07.356Z,96339.31
2022-08-26T04:21:35.848Z,96344.13
2022-08-26T04:24:04.129Z,96345.47
2022-08-26T04:26:39.580Z,96343.31
2022-08-26T04:29:15.321Z,96344.13
2022-08-26T04:31:43.525Z,96342.50
2022-08-26T04:34:11.710Z,96344.13
2022-08-26T04:36:43.087Z,96345.50
2022-08-26T04:39:16.514Z,96344.84
2022-08-26T04:41:44.581Z,96345.16
2022-08-26T04:44:13.923Z,96344.34
2022-08-26T04:46:43.724Z,96339.19
2022-08-26T04:49:13.172Z,96340.69
2022-08-26T04:51:41.452Z,96341.19
2022-08-26T04:54:14.060Z,96342.84
2022-08-26T04:56:47.329Z,96354.56
2022-08-26T04:59:18.396Z,96345.03
2022-08-26T05:01:47.887Z,96345.72
2022-08-26T05:04:19.028Z,96353.19
2022-08-26T05:06:47.580Z,96349.69
2022-08-26T05:09:16.110Z,96347.69
2022-08-26T05:11:45.562Z,96348.34
2022-08-26T05:14:18.840Z,96353.34
2022-08-26T05:16:47.976Z,96353.00
2022-08-26T05:19:18.916Z,96354.16
2022-08-26T05:21:48.318Z,96348.81
2022-08-26T05:24:16.569Z,96355.50
2022-08-26T05:26:45.347Z,96347.13
2022-08-26T05:29:13.901Z,96363.16
2022-08-26T05:31:43.283Z,96359.28
2022-08-26T05:34:11.152Z,96352.78
2022-08-26T05:36:39.213Z,96357.28
2022-08-26T05:39:08.117Z,96366.13
2022-08-26T05:41:40.945Z,96368.81
2022-08-26T05:44:12.698Z,96375.47
2022-08-26T05:46:44.689Z,96368.28
2022-08-26T05:49:14.239Z,96368.47
2022-08-26T05:51:46.396Z,96379.66
2022-08-26T05:54:21.880Z,96371.47
2022-08-26T05:56:51.288Z,96382.47
2022-08-26T05:59:23.972Z,96374.75
2022-08-26T06:01:55.549Z,96375.72
2022-08-26T06:04:27.199Z,96373.56
2022-08-26T06:06:56.722Z,96374.84
2022-08-26T06:09:25.203Z,96388.72
2022-08-26T06:11:53.083Z,96381.53
2022-08-26T06:14:21.535Z,96382.34
2022-08-26T06:16:50.218Z,96387.69
2022-08-26T06:19:20.070Z,96383.09
2022-08-26T06:21:54.747Z,96388.06
2022-08-26T06:24:41.234Z,96378.78
2022-08-26T06:27:13.580Z,96385.94
2022-08-26T06:29:41.811Z,96394.69
2022-08-26T06:32:09.836Z,96387.59
2022-08-26T06:34:39.103Z,96383.47
2022-08-26T06:37:07.185Z,96387.09
2022-08-26T06:39:35.557Z,96390.94
2022-08-26T06:42:09.525Z,96394.03
2022-08-26T06:44:39.068Z,96395.81
2022-08-26T06:47:09.187Z,96398.03
2022-08-26T06:49:37.194Z,96393.41
2022-08-26T06:52:06.598Z,96391.50
2022-08-26T06:54:34.783Z,96396.03
2022-08-26T06:57:02.739Z,96395.66
2022-08-26T06:59:31.494Z,96396.41
2022-08-26T07:01:59.415Z,96399.91
2022-08-26T07:04:28.077Z,96398.84
2022-08-26T07:06:56.694Z,96394.56
2022-08-26T07:09:29.224Z,96395.94
2022-08-26T07:11:57.194Z,96399.97
2022-08-26T07:14:25.334Z,96389.75
2022-08-26T07:16:55.032Z,96399.38
2022-08-26T07:19:30.014Z,96396.75
2022-08-26T07:22:01.743Z,96399.59
2022-08-26T07:24:32.323Z,96401.53
2022-08-26T07:27:02.742Z,96392.50
2022-08-26T07:29:30.974Z,96393.03
2022-08-26T07:31:58.895Z,96398.72
2022-08-26T07:34:27.864Z,96402.13
2022-08-26T07:36:56.861Z,96401.31
2022-08-26T07:39:25.393Z,96404.31
2022-08-26T07:41:55.057Z,96409.97
2022-08-26T07:44:24.018Z,96400.09
2022-08-26T07:46:53.062Z,96394.13
2022-08-26T07:49:22.583Z,96394.25
2022-08-26T07:51:50.910Z,96389.34
2022-08-26T07:54:18.981Z,96395.88
2022-08-26T07:56:47.492Z,96393.00
2022-08-26T07:59:18.578Z,96395.75
2022-08-26T08:01:47.581Z,96395.38
2022-08-26T08:04:17.384Z,96401.66
2022-08-26T08:06:47.322Z,96398.38
2022-08-26T08:09:16.411Z,96389.50
2022-08-26T08:11:45.739Z,96395.09
2022-08-26T08:14:18.204Z,96396.41
2022-08-26T08:16:51.168Z,96389.56
2022-08-26T08:19:23.081Z,96382.50
2022-08-26T08:21:51.859Z,96386.44
2022-08-26T08:24:21.951Z,96388.75
2022-08-26T08:26:50.427Z,96390.41
2022-08-26T08:29:20.115Z,96388.72
2022-08-26T08:31:58.472Z,96384.78
2022-08-26T08:34:29.631Z,96386.28
2022-08-26T08:36:57.765Z,96380.47
2022-08-26T08:39:26.357Z,96382.97
2022-08-26T08:42:13.290Z,96382.34
2022-08-26T08:44:52.082Z,96387.94
2022-08-26T08:47:32.026Z,96386.94
2022-08-26T08:50:04.722Z,96377.78
2022-08-26T08:52:36.312Z,96385.25
2022-08-26T08:55:11.069Z,96373.66
2022-08-26T08:57:54.631Z,96379.66
2022-08-26T09:00:30.149Z,96376.28
2022-08-26T09:03:02.726Z,96378.34
2022-08-26T09:05:37.061Z,96376.25
2022-08-26T09:08:11.387Z,96365.00
2022-08-26T09:10:41.811Z,96368.34
2022-08-26T09:13:13.809Z,96365.84
2022-08-26T09:15:56.811Z,96368.50
2022-08-26T09:18:40.743Z,96369.34
2022-08-26T09:21:11.756Z,96369.34
2022-08-26T09:23:43.063Z,96361.41
2022-08-26T09:26:17.919Z,96365.16
2022-08-26T09:28:49.033Z,96369.09
2022-08-26T09:31:24.962Z,96368.47
2022-08-26T09:34:07.299Z,96366.81
2022-08-26T09:36:41.118Z,96368.47
2022-08-26T09:39:27.639Z,96359.31
2022-08-26T09:42:08.169Z,96359.31
2022-08-26T09:44:55.293Z,96348.69
2022-08-26T09:47:30.273Z,96351.59
2022-08-26T09:50:04.563Z,96350.09
2022-08-26T09:52:37.906Z,96353.59
2022-08-26T09:55:14.567Z,96337.22
2022-08-26T09:57:48.989Z,96340.53
2022-08-26T10:00:30.675Z,96335.13
2022-08-26T10:03:03.111Z,96326.66
2022-08-26T10:05:35.880Z,96319.91
2022-08-26T10:08:18.478Z,96315.97
2022-08-26T10:10:47.208Z,96319.72
2022-08-26T10:13:26.152Z,96301.66
2022-08-26T10:16:03.076Z,96308.72
2022-08-26T10:18:39.851Z,96301.56
2022-08-26T10:21:11.969Z,96299.66
2022-08-26T10:23:45.166Z,96305.00
2022-08-26T10:26:17.461Z,96304.84
2022-08-26T10:28:52.098Z,96304.22
2022-08-26T10:31:27.871Z,96295.69
2022-08-26T10:34:00.144Z,96294.03
2022-08-26T10:37:13.937Z,96293.59
2022-08-26T10:39:56.825Z,96297.09
2022-08-26T10:42:31.027Z,96301.63
2022-08-26T10:45:06.082Z,96300.94
2022-08-26T10:47:42.612Z,96303.03
2022-08-26T10:50:12.777Z,96307.72
2022-08-26T10:52:55.464Z,96299.75
2022-08-26T10:55:29.554Z,96291.13
2022-08-26T10:58:14.448Z,96285.28
2022-08-26T11:01:28.644Z,96280.00
2022-08-26T11:04:04.618Z,96284.75
2022-08-26T11:06:33.927Z,96271.16
2022-08-26T11:09:07.094Z,96274.38
2022-08-26T11:11:50.040Z,96272.03
2022-08-26T11:14:45.966Z,96272.84
2022-08-26T11:17:58.086Z,96269.84
2022-08-26T11:20:41.531Z,96258.50
2022-08-26T11:23:50.460Z,96248.41
2022-08-26T11:26:35.476Z,96257.41
2022-08-26T11:29:12.152Z,96253.75
2022-08-26T11:31:56.803Z,96253.13
2022-08-26T11:34:54.906Z,96258.94
2022-08-26T11:37:30.818Z,96252.97
2022-08-26T11:40:03.164Z,96245.66
2022-08-26T11:42:37.462Z,96254.00
2022-08-26T11:45:18.160Z,96240.53
2022-08-26T11:47:46.556Z,96244.69
2022-08-26T11:50:21.052Z,96240.00
2022-08-26T11:52:53.775Z,96252.28
2022-08-26T11:55:24.238Z,96251.28
2022-08-26T11:57:55.534Z,96248.97
2022-08-26T12:00:27.535Z,96250.69
2022-08-26T12:03:05.986Z,96245.41
2022-08-26T12:05:38.215Z,96248.28
2022-08-26T12:08:10.746Z,96258.91
2022-08-26T12:10:40.728Z,96253.13
2022-08-26T12:13:10.205Z,96252.88
2022-08-26T12:15:38.428Z,96257.63
2022-08-26T12:18:29.043Z,96254.59
2022-08-26T12:20:59.767Z,96251.19
2022-08-26T12:23:40.326Z,96238.56
2022-08-26T12:26:15.405Z,96235.81
2022-08-26T12:28:45.916Z,96236.16
2022-08-26T12:31:22.540Z,96242.50
2022-08-26T12:33:51.674Z,96237.66
2022-08-26T12:36:27.417Z,96234.13
2022-08-26T12:38:58.508Z,96232.59
2022-08-26T12:41:46.936Z,96231.78
2022-08-26T12:44:53.361Z,96232.94
2022-08-26T12:47:41.799Z,96228.22
2022-08-26T12:50:18.124Z,96237.53
2022-08-26T12:52:56.911Z,96232.81
2022-08-26T12:55:28.956Z,96232.22
2022-08-26T12:58:14.941Z,96229.25
2022-08-26T13:00:45.030Z,96218.06
2022-08-26T13:03:30.817Z,96219.72
2022-08-26T13:06:16.090Z,96214.28
2022-08-26T13:08:45.962Z,96222.41
2022-08-26T13:11:18.498Z,96208.50
2022-08-26T13:13:51.607Z,96206.72
2022-08-26T13:16:20.126Z,96206.63
2022-08-26T13:18:48.649Z,96208.53
2022-08-26T13:21:19.894Z,96193.91
2022-08-26T13:23:48.641Z,96196.28
2022-08-26T13:26:17.360Z,96193.00
2022-08-26T13:29:01.434Z,96192.19
2022-08-26T13:31:32.204Z,96185.56
2022-08-26T13:34:02.148Z,96178.59
2022-08-26T13:36:30.466Z,96188.88
2022-08-26T13:38:59.045Z,96179.19
2022-08-26T13:41:29.266Z,96173.16
2022-08-26T13:43:59.692Z,96173.59
2022-08-26T13:46:28.291Z,96177.59
2022-08-26T13:48:56.560Z,96181.72
2022-08-26T13:51:26.238Z,96182.22
2022-08-26T13:53:54.846Z,96184.00
2022-08-26T13:56:23.322Z,96184.13
2022-08-26T13:58:51.509Z,96182.34
2022-08-26T14:01:21.381Z,96181.41
2022-08-26T14:03:49.359Z,96187.53
2022-08-26T14:06:18.128Z,96181.41
2022-08-26T14:08:46.231Z,96164.28
2022-08-26T14:11:14.263Z,96179.88
2022-08-26T14:13:42.300Z,96181.19
2022-08-26T14:16:13.384Z,96180.72
2022-08-26T14:18:47.403Z,96175.53
2022-08-26T14:21:17.108Z,96177.75
2022-08-26T14:23:45.259Z,96185.69
2022-08-26T14:26:16.812Z,96179.91
2022-08-26T14:28:58.874Z,96183.66
2022-08-26T14:31:29.267Z,96177.59
2022-08-26T14:34:01.040Z,96171.22
2022-08-26T14:36:29.416Z,96167.94
2022-08-26T14:39:01.156Z,96170.16
2022-08-26T14:41:30.554Z,96189.66
2022-08-26T14:44:01.512Z,96177.00
2022-08-26T14:46:31.196Z,96192.59
2022-08-26T14:49:05.209Z,96192.59
2022-08-26T14:51:35.500Z,96193.78
2022-08-26T14:54:14.206Z,96189.56
2022-08-26T14:56:46.804Z,96180.94
2022-08-26T14:59:15.312Z,96184.72
2022-08-26T15:01:43.410Z,96179.19
2022-08-26T15:04:12.895Z,96168.06
2022-08-26T15:06:41.999Z,96175.88
2022-08-26T15:09:10.296Z,96173.78
2022-08-26T15:11:38.428Z,96168.56
2022-08-26T15:14:06.874Z,96176.72
2022-08-26T15:16:35.591Z,96176.59
2022-08-26T15:19:05.228Z,96179.78
2022-08-26T15:21:36.332Z,96186.50
2022-08-26T15:24:05.930Z,96178.63
2022-08-26T15:26:34.639Z,96183.69
2022-08-26T15:29:05.023Z,96193.81
2022-08-26T15:31:34.236Z,96198.53
2022-08-26T15:34:05.008Z,96209.72
2022-08-26T15:36:34.983Z,96239.75
2022-08-26T15:39:03.091Z,96231.13
2022-08-26T15:41:31.000Z,96241.47
2022-08-26T15:44:03.442Z,96239.47
2022-08-26T15:46:32.483Z,96252.88
2022-08-26T15:49:00.582Z,96256.00
2022-08-26T15:51:30.403Z,96252.28
2022-08-26T15:54:02.976Z,96250.72
2022-08-26T15:56:34.824Z,96264.34
2022-08-26T15:59:04.720Z,96271.09
2022-08-26T16:01:33.954Z,96277.25
2022-08-26T16:04:02.323Z,96268.78
2022-08-26T16:06:32.411Z,96275.78
2022-08-26T16:09:02.431Z,96277.41
2022-08-26T16:11:31.225Z,96283.75
2022-08-26T16:13:59.125Z,96283.97
2022-08-26T16:16:27.050Z,96288.75
2022-08-26T16:18:55.168Z,96302.13
2022-08-26T16:21:27.868Z,96308.59
2022-08-26T16:23:56.503Z,96321.28
2022-08-26T16:26:28.855Z,96323.09
2022-08-26T16:28:56.899Z,96333.91
2022-08-26T16:31:25.525Z,96334.34
2022-08-26T16:33:53.407Z,96335.69
2022-08-26T16:36:21.298Z,96344.84
2022-08-26T16:38:54.321Z,96348.56
2022-08-26T16:41:22.252Z,96355.81
2022-08-26T16:43:51.957Z,96362.47
2022-08-26T16:46:22.131Z,96362.66
2022-08-26T16:48:50.263Z,96361.00
2022-08-26T16:51:22.960Z,96355.34
2022-08-26T16:53:53.414Z,96348.94
2022-08-26T16:56:27.730Z,96336.41
2022-08-26T16:59:04.921Z,96334.28
2022-08-26T17:01:33.372Z,96329.72
2022-08-26T17:04:01.288Z,96325.13
2022-08-26T17:06:29.742Z,96317.81
2022-08-26T17:08:57.653Z,96309.50
2022-08-26T17:11:25.500Z,96312.34
2022-08-26T17:13:53.417Z,96308.13
2022-08-26T17:16:26.594Z,96311.91
2022-08-26T17:18:56.406Z,96314.97
2022-08-26T17:21:24.678Z,96309.34
2022-08-26T17:23:53.162Z,96305.84
2022-08-26T17:26:21.596Z,96302.44
2022-08-26T17:28:50.102Z,96309.91
2022-08-26T17:31:18.279Z,96301.22
2022-08-26T17:33:53.480Z,96301.38
2022-08-26T17:36:28.195Z,96299.88
2022-08-26T17:38:57.488Z,96318.44
2022-08-26T17:41:26.055Z,96313.47
2022-08-26T17:43:56.446Z,96313.47
2022-08-26T17:46:24.445Z,96319.00
2022-08-26T17:48:53.879Z,96315.91
2022-08-26T17:51:23.458Z,96306.53
2022-08-26T17:53:52.781Z,96303.41
2022-08-26T17:56:24.108Z,96305.91
2022-08-26T17:58:52.928Z,96296.63
2022-08-26T18:01:21.183Z,96292.06
2022-08-26T18:03:49.620Z,96303.84
2022-08-26T18:06:19.645Z,96302.00
2022-08-26T18:08:48.202Z,96294.97
2022-08-26T18:11:18.857Z,96302.97
2022-08-26T18:13:47.883Z,96300.69
2022-08-26T18:16:17.729Z,96306.34
2022-08-26T18:18:46.441Z,96301.75
2022-08-26T18:21:16.610Z,96304.88
2022-08-26T18:23:46.822Z,96309.25
2022-08-26T18:26:18.140Z,96305.13
2022-08-26T18:28:46.063Z,96309.69
2022-08-26T18:31:15.239Z,96317.69
2022-08-26T18:33:44.061Z,96324.91
2022-08-26T18:36:16.980Z,96331.69
2022-08-26T18:38:46.474Z,96342.22
2022-08-26T18:41:14.451Z,96347.22
2022-08-26T18:43:42.450Z,96356.06
2022-08-26T18:46:11.673Z,96349.22
2022-08-26T18:48:41.639Z,96349.81
2022-08-26T18:51:16.042Z,96359.94
2022-08-26T18:53:43.983Z,96368.84
2022-08-26T18:56:15.389Z,96376.69
2022-08-26T18:58:46.011Z,96382.50
2022-08-26T19:01:14.893Z,96394.28
2022-08-26T19:03:43.191Z,96383.97
2022-08-26T19:06:15.566Z,96385.94
2022-08-26T19:08:44.816Z,96382.03
2022-08-26T19:11:14.809Z,96390.63
2022-08-26T19:13:43.362Z,96376.72
2022-08-26T19:16:16.633Z,96385.34
2022-08-26T19:18:44.627Z,96384.69
2022-08-26T19:21:12.979Z,96379.81
2022-08-26T19:23:42.342Z,96396.84
2022-08-26T19:26:11.159Z,96401.38
2022-08-26T19:28:41.234Z,96405.53
2022-08-26T19:31:11.334Z,96418.53
2022-08-26T19:33:39.546Z,96410.19
2022-08-26T19:36:11.500Z,96402.13
2022-08-26T19:38:42.805Z,96420.47
2022-08-26T19:41:12.325Z,96424.16
2022-08-26T19:43:42.439Z,96422.59
2022-08-26T19:46:12.838Z,96411.03
2022-08-26T19:48:43.877Z,96416.59
2022-08-26T19:51:15.797Z,96414.28
2022-08-26T19:53:44.580Z,96415.94
2022-08-26T19:56:13.802Z,96418.63
2022-08-26T19:58:44.028Z,96422.97
2022-08-26T20:01:13.240Z,96408.06
2022-08-26T20:03:42.781Z,96410.94
2022-08-26T20:06:12.792Z,96411.94
2022-08-26T20:08:42.947Z,96404.63
2022-08-26T20:11:16.097Z,96408.53
2022-08-26T20:13:46.902Z,96416.19
2022-08-26T20:16:15.605Z,96406.00
2022-08-26T20:19:02.856Z,96404.53
2022-08-26T20:21:35.518Z,96403.72
2022-08-26T20:24:07.165Z,96401.75
2022-08-26T20:26:37.110Z,96399.25
2022-08-26T20:29:08.213Z,96404.63
2022-08-26T20:31:36.603Z,96400.28
2022-08-26T20:34:05.461Z,96406.47
2022-08-26T20:36:34.148Z,96394.28
2022-08-26T20:39:02.116Z,96393.63
2022-08-26T20:41:30.015Z,96402.88
2022-08-26T20:43:58.492Z,96408.59
2022-08-26T20:46:27.896Z,96413.31
2022-08-26T20:48:56.351Z,96420.72
2022-08-26T20:51:26.141Z,96417.38
2022-08-26T20:53:54.255Z,96413.41
2022-08-26T20:56:24.289Z,96418.78
2022-08-26T20:58:54.054Z,96414.03
2022-08-26T21:01:24.040Z,96423.50
2022-08-26T21:03:55.168Z,96414.03
2022-08-26T21:06:23.754Z,96414.25
2022-08-26T21:08:51.785Z,96413.22
2022-08-26T21:11:21.283Z,96422.47
2022-08-26T21:14:04.325Z,96426.34
2022-08-26T21:16:36.684Z,96425.50
2022-08-26T21:19:08.446Z,96438.44
2022-08-26T21:21:36.521Z,96427.44
2022-08-26T21:24:05.539Z,96428.53
2022-08-26T21:26:33.664Z,96431.84
2022-08-26T21:29:02.581Z,96443.28
2022-08-26T21:31:31.900Z,96440.00
2022-08-26T21:34:00.900Z,96436.09
2022-08-26T21:36:30.253Z,96433.13
2022-08-26T21:38:58.569Z,96433.47
2022-08-26T21:41:26.825Z,96431.47
2022-08-26T21:43:59.120Z,96432.50
2022-08-26T21:46:29.514Z,96429.97
2022-08-26T21:48:59.662Z,96428.50
2022-08-26T21:51:31.139Z,96433.31
2022-08-26T21:54:00.664Z,96429.16
2022-08-26T21:56:31.519Z,96435.34
2022-08-26T21:59:00.834Z,96432.50
2022-08-26T22:01:31.897Z,96427.75
2022-08-26T22:04:00.072Z,96429.59
2022-08-26T22:06:30.062Z,96428.78
2022-08-26T22:08:58.641Z,96432.50
2022-08-26T22:11:28.375Z,96430.81
2022-08-26T22:13:56.939Z,96423.78
2022-08-26T22:16:26.806Z,96426.19
2022-08-26T22:18:55.149Z,96422.56
2022-08-26T22:21:25.252Z,96422.84
2022-08-26T22:23:57.951Z,96430.22
2022-08-26T22:26:28.712Z,96432.53
2022-08-26T22:28:59.009Z,96432.72
2022-08-26T22:31:37.410Z,96441.94
2022-08-26T22:34:08.916Z,96450.53
2022-08-26T22:36:43.611Z,96448.84
2022-08-26T22:39:15.508Z,96457.56
2022-08-26T22:41:44.956Z,96459.72
2022-08-26T22:44:13.688Z,96462.22
2022-08-26T22:46:43.718Z,96471.44
2022-08-26T22:49:15.749Z,96470.97
2022-08-26T22:51:44.506Z,96478.16
2022-08-26T22:54:14.197Z,96476.97
2022-08-26T22:56:42.311Z,96480.47
2022-08-26T22:59:10.991Z,96479.50
2022-08-26T23:01:42.374Z,96474.63
2022-08-26T23:04:11.020Z,96469.59
2022-08-26T23:06:41.051Z,96463.75
2022-08-26T23:09:10.252Z,96463.06
2022-08-26T23:11:42.595Z,96462.94
2022-08-26T23:14:11.086Z,96454.19
2022-08-26T23:16:41.553Z,96454.06
2022-08-26T23:19:10.202Z,96459.53
2022-08-26T23:21:38.074Z,96451.69
2022-08-26T23:24:06.275Z,96449.00
2022-08-26T23:26:35.648Z,96453.19
2022-08-26T23:29:05.562Z,96446.03
2022-08-26T23:31:33.976Z,96444.00
2022-08-26T23:34:19.604Z,96440.97
2022-08-26T23:36:47.639Z,96441.34
2022-08-26T23:39:15.838Z,96444.31
2022-08-26T23:41:43.812Z,96437.63
2022-08-26T23:44:13.373Z,96444.44
2022-08-26T23:46:41.295Z,96440.13
2022-08-26T23:49:09.185Z,96445.13
2022-08-26T23:51:54.583Z,96450.47
2022-08-26T23:54:22.395Z,96442.25
2022-08-26T23:56:50.302Z,96435.72
2022-08-26T23:59:19.486Z,96434.84
